createdAt,value
2022-11-24T00:01:35.867Z,7.40
2022-11-24T00:04:27.686Z,7.50
2022-11-24T00:07:19.306Z,7.40
2022-11-24T00:10:12.153Z,7.50
2022-11-24T00:13:03.418Z,7.50
2022-11-24T00:18:34.055Z,7.40
2022-11-24T00:21:26.438Z,7.40
2022-11-24T00:24:17.759Z,7.40
2022-11-24T00:27:09.346Z,7.40
2022-11-24T00:32:41.308Z,7.20
2022-11-24T00:35:32.936Z,7.20
2022-11-24T00:38:24.598Z,7.20
2022-11-24T00:44:00.553Z,7.10
2022-11-24T00:46:51.662Z,7.20
2022-11-24T00:49:45.821Z,7.20
2022-11-24T00:52:37.406Z,7.20
2022-11-24T00:55:29.148Z,7.20
2022-11-24T00:58:20.872Z,7.10
2022-11-24T01:03:57.751Z,7.20
2022-11-24T01:09:28.788Z,7.20
2022-11-24T01:12:20.340Z,7.20
2022-11-24T01:15:12.616Z,7.20
2022-11-24T01:18:04.864Z,7.30
2022-11-24T01:23:41.936Z,7.20
2022-11-24T01:29:19.284Z,7.10
2022-11-24T01:32:10.748Z,7.10
2022-11-24T01:35:02.320Z,7.10
2022-11-24T01:37:53.841Z,7.00
2022-11-24T01:43:29.071Z,7.10
2022-11-24T01:46:24.275Z,7.10
2022-11-24T01:49:21.008Z,7.00
2022-11-24T01:52:17.556Z,7.00
2022-11-24T01:55:13.096Z,6.90
2022-11-24T01:58:08.905Z,6.80
2022-11-24T02:01:00.864Z,6.80
2022-11-24T02:03:53.764Z,6.80
2022-11-24T02:06:47.343Z,6.70
2022-11-24T02:09:41.579Z,6.60
2022-11-24T02:12:34.001Z,6.60
2022-11-24T02:15:25.698Z,6.50
2022-11-24T02:18:17.420Z,6.50
2022-11-24T02:21:09.743Z,6.50
2022-11-24T02:24:04.712Z,6.50
2022-11-24T02:26:55.895Z,6.50
2022-11-24T02:29:48.002Z,6.50
2022-11-24T02:32:42.993Z,6.50
2022-11-24T02:35:35.054Z,6.60
2022-11-24T02:38:34.185Z,6.70
2022-11-24T02:44:13.017Z,6.70
2022-11-24T02:47:10.118Z,6.70
2022-11-24T02:50:02.029Z,6.70
2022-11-24T02:52:53.685Z,6.70
2022-11-24T02:58:26.466Z,6.80
2022-11-24T03:03:56.256Z,6.80
2022-11-24T03:06:47.829Z,6.80
2022-11-24T03:09:39.833Z,6.80
2022-11-24T03:12:31.477Z,6.80
2022-11-24T03:15:23.851Z,6.70
2022-11-24T03:18:15.590Z,6.70
2022-11-24T03:23:48.573Z,6.80
2022-11-24T03:26:39.979Z,6.70
2022-11-24T03:29:31.872Z,6.60
2022-11-24T03:32:23.411Z,6.60
2022-11-24T03:35:14.990Z,6.60
2022-11-24T03:38:06.650Z,6.50
2022-11-24T03:46:29.289Z,6.40
2022-11-24T03:49:23.959Z,6.40
2022-11-24T03:52:15.530Z,6.40
2022-11-24T03:55:08.112Z,6.40
2022-11-24T03:57:59.312Z,6.40
2022-11-24T04:00:52.191Z,6.30
2022-11-24T04:03:43.544Z,6.30
2022-11-24T04:09:13.036Z,6.30
2022-11-24T04:12:22.640Z,6.40
2022-11-24T04:15:15.633Z,6.40
2022-11-24T04:18:07.740Z,6.40
2022-11-24T04:23:39.291Z,6.50
2022-11-24T04:26:30.878Z,6.50
2022-11-24T04:29:22.424Z,6.50
2022-11-24T04:35:04.995Z,6.50
2022-11-24T04:37:56.512Z,6.50
2022-11-24T04:43:27.538Z,6.50
2022-11-24T04:46:19.390Z,6.50
2022-11-24T04:49:11.947Z,6.50
2022-11-24T04:52:03.713Z,6.40
2022-11-24T04:54:55.253Z,6.40
2022-11-24T04:57:46.911Z,6.40
2022-11-24T05:00:38.865Z,6.40
2022-11-24T05:03:30.518Z,6.40
2022-11-24T05:09:01.625Z,6.40
2022-11-24T05:11:52.872Z,6.50
2022-11-24T05:14:47.444Z,6.40
2022-11-24T05:17:40.553Z,6.40
2022-11-24T05:20:32.033Z,6.40
2022-11-24T05:23:23.460Z,6.40
2022-11-24T05:28:58.289Z,6.50
2022-11-24T05:31:49.907Z,6.50
2022-11-24T05:34:41.427Z,6.50
2022-11-24T05:37:33.397Z,6.50
2022-11-24T05:40:25.769Z,6.60
2022-11-24T05:43:18.804Z,6.60
2022-11-24T05:46:14.347Z,6.50
2022-11-24T05:49:05.907Z,6.50
2022-11-24T05:51:57.470Z,6.60
2022-11-24T05:54:49.090Z,6.60
2022-11-24T05:57:42.137Z,6.60
2022-11-24T06:00:34.752Z,6.60
2022-11-24T06:03:26.105Z,6.70
2022-11-24T06:08:55.946Z,6.70
2022-11-24T06:14:30.966Z,6.70
2022-11-24T06:17:23.971Z,6.70
2022-11-24T06:22:55.387Z,6.70
2022-11-24T06:25:51.366Z,6.60
2022-11-24T06:28:40.790Z,6.70
2022-11-24T06:31:35.487Z,6.60
2022-11-24T06:34:26.715Z,6.60
2022-11-24T06:39:57.428Z,6.50
2022-11-24T06:42:56.300Z,6.50
2022-11-24T06:45:53.613Z,6.60
2022-11-24T06:48:45.173Z,6.50
2022-11-24T06:54:21.927Z,6.50
2022-11-24T06:59:59.798Z,6.40
2022-11-24T07:02:51.178Z,6.50
2022-11-24T07:05:44.275Z,6.50
2022-11-24T07:08:36.198Z,6.50
2022-11-24T07:14:08.864Z,6.50
2022-11-24T07:19:39.267Z,6.50
2022-11-24T07:22:30.646Z,6.50
2022-11-24T07:25:22.642Z,6.50
2022-11-24T07:28:14.261Z,6.50
2022-11-24T07:33:50.524Z,6.50
2022-11-24T07:36:42.239Z,6.60
2022-11-24T07:39:33.750Z,6.60
2022-11-24T07:42:25.382Z,6.70
2022-11-24T07:45:17.365Z,6.80
2022-11-24T07:48:13.869Z,6.80
2022-11-24T07:51:06.747Z,6.90
2022-11-24T07:56:43.725Z,6.90
2022-11-24T07:59:35.339Z,6.90
2022-11-24T08:02:27.454Z,6.80
2022-11-24T08:08:01.897Z,6.90
2022-11-24T08:10:53.841Z,6.90
2022-11-24T08:13:46.179Z,7.00
2022-11-24T08:16:38.198Z,7.00
2022-11-24T08:19:29.886Z,7.10
2022-11-24T08:25:01.410Z,7.20
2022-11-24T08:27:52.850Z,7.20
2022-11-24T08:30:46.353Z,7.30
2022-11-24T08:33:37.811Z,7.30
2022-11-24T08:36:31.006Z,7.30
2022-11-24T08:39:22.945Z,7.40
2022-11-24T08:42:17.450Z,7.40
2022-11-24T08:45:20.274Z,7.50
2022-11-24T08:48:03.059Z,7.60
2022-11-24T08:53:38.485Z,7.70
2022-11-24T08:56:31.317Z,7.80
2022-11-24T08:59:23.252Z,7.90
2022-11-24T09:02:17.828Z,7.90
2022-11-24T09:05:43.283Z,8.10
2022-11-24T09:08:03.179Z,8.00
2022-11-24T09:13:38.811Z,8.00
2022-11-24T09:19:12.711Z,8.10
2022-11-24T09:22:03.696Z,8.10
2022-11-24T09:24:55.388Z,8.10
2022-11-24T09:27:46.777Z,8.20
2022-11-24T09:33:17.073Z,8.20
2022-11-24T09:38:47.619Z,8.30
2022-11-24T09:45:03.457Z,8.40
2022-11-24T09:50:51.233Z,8.60
2022-11-24T09:59:25.225Z,8.60
2022-11-24T10:02:17.156Z,8.60
2022-11-24T10:05:10.630Z,8.50
2022-11-24T10:08:07.858Z,8.40
2022-11-24T10:14:12.373Z,8.50
2022-11-24T10:17:11.216Z,8.60
2022-11-24T10:20:07.255Z,8.70
2022-11-24T10:23:09.002Z,8.90
2022-11-24T10:26:02.849Z,9.00
2022-11-24T10:28:58.244Z,8.90
2022-11-24T10:31:53.330Z,8.90
2022-11-24T10:37:29.736Z,8.90
2022-11-24T10:40:49.088Z,9.00
2022-11-24T10:43:21.356Z,9.00
2022-11-24T10:48:55.056Z,9.00
2022-11-24T10:51:52.173Z,8.90
2022-11-24T10:54:58.233Z,8.80
2022-11-24T10:57:49.631Z,8.80
2022-11-24T11:00:41.173Z,8.90
2022-11-24T11:03:47.888Z,8.90
2022-11-24T11:09:22.364Z,9.10
2022-11-24T11:15:30.748Z,9.20
2022-11-24T11:18:23.568Z,9.30
2022-11-24T11:21:18.380Z,9.20
2022-11-24T11:27:02.010Z,9.30
2022-11-24T11:35:35.555Z,9.40
2022-11-24T11:38:29.511Z,9.60
2022-11-24T11:41:24.377Z,9.60
2022-11-24T11:47:08.191Z,9.60
2022-11-24T11:49:59.771Z,9.60
2022-11-24T11:53:00.049Z,9.80
2022-11-24T11:59:06.598Z,10.00
2022-11-24T12:02:24.115Z,10.10
2022-11-24T12:05:19.723Z,10.20
2022-11-24T12:16:52.054Z,10.20
2022-11-24T12:19:58.473Z,10.20
2022-11-24T12:22:53.287Z,10.30
2022-11-24T12:25:48.038Z,10.30
2022-11-24T12:28:44.963Z,10.30
2022-11-24T12:31:40.592Z,10.30
2022-11-24T12:34:39.707Z,10.20
2022-11-24T12:37:43.644Z,10.30
2022-11-24T12:40:46.881Z,10.30
2022-11-24T12:43:38.579Z,10.30
2022-11-24T12:46:39.237Z,10.30
2022-11-24T12:55:00.110Z,10.30
2022-11-24T12:57:55.544Z,10.20
2022-11-24T13:00:52.970Z,10.20
2022-11-24T13:03:48.947Z,10.20
2022-11-24T13:09:21.854Z,10.30
2022-11-24T13:12:16.685Z,10.40
2022-11-24T13:15:43.576Z,10.40
2022-11-24T13:21:39.016Z,10.40
2022-11-24T13:24:32.605Z,10.40
2022-11-24T13:27:32.948Z,10.40
2022-11-24T13:33:45.183Z,10.50
2022-11-24T13:36:57.338Z,10.50
2022-11-24T13:39:54.618Z,10.50
2022-11-24T13:43:37.091Z,10.50
2022-11-24T13:49:49.002Z,10.60
2022-11-24T13:52:52.554Z,10.70
2022-11-24T13:55:47.015Z,10.60
2022-11-24T14:01:23.523Z,10.70
2022-11-24T14:04:31.601Z,10.70
2022-11-24T14:07:23.254Z,10.80
2022-11-24T14:10:19.968Z,10.80
2022-11-24T14:13:30.970Z,10.80
2022-11-24T14:16:24.083Z,10.80
2022-11-24T14:19:21.035Z,10.90
2022-11-24T14:22:22.104Z,10.90
2022-11-24T14:28:03.428Z,10.90
2022-11-24T14:34:21.565Z,11.00
2022-11-24T14:40:06.350Z,11.10
2022-11-24T14:42:58.047Z,11.10
2022-11-24T14:45:55.007Z,11.00
2022-11-24T14:48:51.507Z,11.00
2022-11-24T14:51:46.329Z,10.90
2022-11-24T14:54:39.231Z,10.80
2022-11-24T14:57:33.127Z,10.80
2022-11-24T15:00:43.875Z,10.70
2022-11-24T15:03:35.483Z,10.70
2022-11-24T15:06:27.026Z,10.60
2022-11-24T15:09:29.532Z,10.60
2022-11-24T15:15:05.476Z,10.40
2022-11-24T15:17:59.961Z,10.30
2022-11-24T15:20:54.339Z,10.30
2022-11-24T15:24:07.537Z,10.20
2022-11-24T15:27:03.027Z,10.20
2022-11-24T15:29:54.399Z,10.20
2022-11-24T15:32:53.199Z,10.20
2022-11-24T15:35:44.603Z,10.10
2022-11-24T15:38:36.687Z,10.10
2022-11-24T15:41:31.116Z,10.10
2022-11-24T15:44:22.618Z,10.10
2022-11-24T15:47:14.331Z,10.00
2022-11-24T15:50:07.073Z,9.90
2022-11-24T15:52:59.602Z,9.80
2022-11-24T15:55:51.304Z,9.80
2022-11-24T15:58:42.968Z,9.70
2022-11-24T16:01:38.148Z,9.70
2022-11-24T16:04:29.943Z,9.60
2022-11-24T16:10:01.224Z,9.40
2022-11-24T16:12:52.791Z,9.40
2022-11-24T16:15:44.538Z,9.40
2022-11-24T16:18:38.118Z,9.30
2022-11-24T16:21:29.829Z,9.30
2022-11-24T16:24:21.591Z,9.40
2022-11-24T16:27:13.478Z,9.40
2022-11-24T16:30:05.190Z,9.40
2022-11-24T16:33:00.367Z,9.30
2022-11-24T16:35:51.878Z,9.30
2022-11-24T16:38:43.578Z,9.20
2022-11-24T16:41:34.887Z,9.20
2022-11-24T16:44:27.721Z,9.10
2022-11-24T16:47:19.405Z,9.10
2022-11-24T16:50:13.711Z,9.10
2022-11-24T16:53:09.938Z,9.20
2022-11-24T16:56:01.456Z,9.20
2022-11-24T16:58:53.837Z,9.20
2022-11-24T17:01:46.859Z,9.20
2022-11-24T17:04:38.439Z,9.10
2022-11-24T17:07:29.936Z,9.10
2022-11-24T17:10:21.918Z,9.00
2022-11-24T17:13:14.413Z,9.00
2022-11-24T17:16:07.839Z,9.10
2022-11-24T17:18:59.954Z,9.00
2022-11-24T17:21:51.428Z,9.00
2022-11-24T17:24:44.621Z,9.00
2022-11-24T17:27:36.303Z,9.00
2022-11-24T17:30:28.043Z,8.90
2022-11-24T17:33:19.692Z,8.90
2022-11-24T17:36:14.372Z,8.90
2022-11-24T17:39:08.103Z,8.80
2022-11-24T17:41:59.613Z,8.80
2022-11-24T17:44:51.339Z,8.80
2022-11-24T17:47:43.015Z,8.80
2022-11-24T17:50:36.308Z,8.80
2022-11-24T17:53:27.626Z,8.70
2022-11-24T17:56:23.290Z,8.80
2022-11-24T17:59:14.640Z,8.80
2022-11-24T18:02:05.832Z,8.80
2022-11-24T18:05:02.418Z,8.70
2022-11-24T18:07:55.366Z,8.70
2022-11-24T18:13:48.868Z,8.70
2022-11-24T18:16:20.116Z,8.70
2022-11-24T18:19:12.810Z,8.70
2022-11-24T18:22:04.462Z,8.70
2022-11-24T18:24:56.290Z,8.70
2022-11-24T18:27:48.275Z,8.60
2022-11-24T18:30:40.088Z,8.60
2022-11-24T18:33:31.726Z,8.50
2022-11-24T18:36:29.860Z,8.60
2022-11-24T18:39:19.053Z,8.60
2022-11-24T18:42:10.385Z,8.50
2022-11-24T18:45:02.077Z,8.60
2022-11-24T18:47:53.643Z,8.50
2022-11-24T18:50:45.326Z,8.50
2022-11-24T18:53:38.803Z,8.40
2022-11-24T18:56:30.314Z,8.40
2022-11-24T18:59:21.742Z,8.40
2022-11-24T19:02:13.402Z,8.40
2022-11-24T19:05:05.399Z,8.50
2022-11-24T19:10:38.983Z,8.60
2022-11-24T19:13:30.714Z,8.50
2022-11-24T19:16:23.199Z,8.50
2022-11-24T19:19:17.190Z,8.40
2022-11-24T19:22:10.226Z,8.40
2022-11-24T19:25:01.563Z,8.30
2022-11-24T19:27:52.836Z,8.30
2022-11-24T19:30:45.563Z,8.20
2022-11-24T19:33:37.515Z,8.20
2022-11-24T19:36:29.082Z,8.20
2022-11-24T19:39:20.679Z,8.30
2022-11-24T19:44:56.444Z,8.40
2022-11-24T19:47:44.832Z,8.40
2022-11-24T19:50:36.729Z,8.40
2022-11-24T19:53:28.242Z,8.40
2022-11-24T19:56:21.497Z,8.40
2022-11-24T19:59:16.313Z,8.40
2022-11-24T20:02:08.429Z,8.40
2022-11-24T20:04:59.748Z,8.40
2022-11-24T20:07:51.662Z,8.30
2022-11-24T20:13:23.866Z,8.30
2022-11-24T20:16:17.004Z,8.30
2022-11-24T20:19:11.391Z,8.30
2022-11-24T20:22:02.960Z,8.30
2022-11-24T20:24:54.565Z,8.30
2022-11-24T20:27:46.106Z,8.20
2022-11-24T20:30:37.722Z,8.20
2022-11-24T20:33:29.744Z,8.10
2022-11-24T20:36:23.343Z,8.10
2022-11-24T20:39:17.912Z,8.10
2022-11-24T20:42:09.785Z,8.10
2022-11-24T20:45:01.551Z,8.10
2022-11-24T20:47:52.825Z,8.00
2022-11-24T20:50:49.802Z,8.10
2022-11-24T20:53:38.136Z,8.10
2022-11-24T20:56:31.459Z,8.20
2022-11-24T20:59:24.828Z,8.20
2022-11-24T21:02:16.230Z,8.30
2022-11-24T21:05:09.008Z,8.20
2022-11-24T21:07:59.939Z,8.20
2022-11-24T21:10:56.651Z,8.20
2022-11-24T21:13:49.848Z,8.10
2022-11-24T21:16:42.981Z,8.10
2022-11-24T21:19:34.226Z,8.20
2022-11-24T21:22:25.782Z,8.20
2022-11-24T21:25:17.247Z,8.20
2022-11-24T21:28:09.809Z,8.20
2022-11-24T21:31:07.038Z,8.20
2022-11-24T21:33:59.007Z,8.20
2022-11-24T21:36:50.997Z,8.20
2022-11-24T21:39:44.336Z,8.20
2022-11-24T21:42:35.800Z,8.20
2022-11-24T21:45:28.755Z,8.20
2022-11-24T21:48:20.711Z,8.20
2022-11-24T21:51:14.883Z,8.20
2022-11-24T21:54:06.693Z,8.20
2022-11-24T21:56:58.047Z,8.20
2022-11-24T22:02:34.853Z,8.30
2022-11-24T22:05:26.384Z,8.50
2022-11-24T22:11:04.670Z,8.30
2022-11-24T22:16:41.598Z,8.20
2022-11-24T22:22:22.238Z,8.20
2022-11-24T22:25:13.790Z,8.20
2022-11-24T22:28:05.479Z,8.10
2022-11-24T22:30:56.852Z,8.10
2022-11-24T22:33:50.197Z,8.00
2022-11-24T22:36:41.723Z,8.00
2022-11-24T22:39:33.455Z,8.00
2022-11-24T22:42:25.161Z,8.00
2022-11-24T22:47:57.213Z,8.00
2022-11-24T22:50:48.674Z,8.00
2022-11-24T22:57:07.791Z,8.10
2022-11-24T23:02:39.065Z,8.10
2022-11-24T23:05:30.370Z,8.20
2022-11-24T23:08:21.722Z,8.10
2022-11-24T23:13:56.149Z,8.10
2022-11-24T23:16:47.437Z,8.00
2022-11-24T23:19:38.804Z,8.00
2022-11-24T23:22:32.861Z,8.00
2022-11-24T23:28:04.066Z,8.00
2022-11-24T23:31:02.798Z,7.90
2022-11-24T23:33:55.276Z,7.90
2022-11-24T23:36:46.941Z,7.90
2022-11-24T23:39:38.445Z,8.00
2022-11-24T23:42:29.733Z,7.90
2022-11-24T23:45:20.860Z,8.00
2022-11-24T23:48:12.384Z,8.00
2022-11-24T23:51:07.704Z,8.00
2022-11-24T23:53:59.830Z,8.00
2022-11-24T23:56:51.287Z,8.00
2022-11-24T23:59:42.538Z,8.00
